Terminal Aerodrome Forecast
Issued by NWS

Home | Current Version | Previous Version | Text Only | Print | Product List | Glossary On
Versions: 1 2 3 4 5 6 7 8 9 10 11 12 13 14 15 16 17 18 19 20
000
FTUS46 KLOX 021500 AAA
TAFSBA
TAF AMD
KSBA 021514Z 0215/0312 03006KT P6SM SCT006
     FM021800 19006KT P6SM SCT010
     FM022000 25008KT P6SM SKC
     FM030200 VRB03KT P6SM SKC
     FM030600 VRB03KT P6SM OVC008=

USA.gov is the U.S. government's official web portal to all federal, state and local government web resources and services.